createdAt,value
2017-06-14T00:01:15.534Z,13.70
2017-06-14T00:03:43.826Z,13.70
2017-06-14T00:06:12.924Z,13.70
2017-06-14T00:08:41.990Z,13.70
2017-06-14T00:11:10.319Z,13.60
2017-06-14T00:13:38.674Z,13.70
2017-06-14T00:16:07.771Z,13.60
2017-06-14T00:18:36.147Z,13.60
2017-06-14T00:21:05.240Z,13.60
2017-06-14T00:23:33.620Z,13.50
2017-06-14T00:26:02.679Z,13.50
2017-06-14T00:28:31.087Z,13.50
2017-06-14T00:31:00.154Z,13.50
2017-06-14T00:33:28.443Z,13.40
2017-06-14T00:35:56.771Z,13.40
2017-06-14T00:38:25.067Z,13.40
2017-06-14T00:40:53.489Z,13.40
2017-06-14T00:43:22.582Z,13.30
2017-06-14T00:45:51.675Z,13.30
2017-06-14T00:48:19.939Z,13.30
2017-06-14T00:50:48.270Z,13.30
2017-06-14T00:53:16.610Z,13.30
2017-06-14T00:55:45.092Z,13.30
2017-06-14T00:58:14.301Z,13.20
2017-06-14T01:00:42.694Z,13.20
2017-06-14T01:03:11.042Z,13.20
2017-06-14T01:05:39.389Z,13.20
2017-06-14T01:08:07.802Z,13.20
2017-06-14T01:10:36.216Z,13.10
2017-06-14T01:13:04.527Z,13.10
2017-06-14T01:15:32.934Z,13.10
2017-06-14T01:18:02.022Z,13.10
2017-06-14T01:20:30.407Z,13.00
2017-06-14T01:22:59.470Z,13.10
2017-06-14T01:25:27.979Z,13.00
2017-06-14T01:27:57.079Z,13.00
2017-06-14T01:30:26.165Z,13.00
2017-06-14T01:32:54.498Z,13.00
2017-06-14T01:35:22.831Z,13.00
2017-06-14T01:37:51.141Z,13.00
2017-06-14T01:40:19.478Z,13.00
2017-06-14T01:42:48.564Z,13.00
2017-06-14T01:45:16.946Z,13.00
2017-06-14T01:47:45.306Z,13.00
2017-06-14T01:50:13.619Z,13.10
2017-06-14T01:52:41.979Z,13.10
2017-06-14T01:55:10.277Z,13.10
2017-06-14T01:57:38.634Z,13.20
2017-06-14T02:00:07.723Z,13.30
2017-06-14T02:02:36.002Z,13.20
2017-06-14T02:05:04.335Z,13.40
2017-06-14T02:07:32.657Z,13.50
2017-06-14T02:10:00.937Z,13.50
2017-06-14T02:12:29.238Z,13.60
2017-06-14T02:14:57.690Z,13.70
2017-06-14T02:17:26.792Z,13.80
2017-06-14T02:19:55.175Z,13.70
2017-06-14T02:22:24.251Z,13.90
2017-06-14T02:24:53.155Z,13.90
2017-06-14T02:27:22.338Z,14.00
2017-06-14T02:29:50.807Z,13.90
2017-06-14T02:32:19.204Z,13.90
2017-06-14T02:34:48.398Z,13.80
2017-06-14T02:37:17.459Z,13.80
2017-06-14T02:39:45.819Z,13.80
2017-06-14T02:42:15.021Z,13.90
2017-06-14T02:44:43.347Z,13.90
2017-06-14T02:47:12.398Z,13.80
2017-06-14T02:49:40.815Z,13.70
2017-06-14T02:52:09.106Z,13.70
2017-06-14T02:54:37.471Z,13.70
2017-06-14T02:57:06.566Z,13.50
2017-06-14T02:59:34.947Z,13.50
2017-06-14T03:02:04.136Z,13.30
2017-06-14T03:04:32.515Z,13.20
2017-06-14T03:07:01.590Z,13.10
2017-06-14T03:09:29.900Z,13.10
2017-06-14T03:11:58.984Z,13.00
2017-06-14T03:14:27.329Z,12.90
2017-06-14T03:16:55.611Z,12.90
2017-06-14T03:19:23.916Z,12.90
2017-06-14T03:21:52.230Z,12.90
2017-06-14T03:24:20.562Z,12.90
2017-06-14T03:26:48.883Z,12.80
2017-06-14T03:29:17.219Z,12.70
2017-06-14T03:31:46.327Z,12.70
2017-06-14T03:34:15.390Z,12.70
2017-06-14T03:36:43.799Z,12.60
2017-06-14T03:39:12.997Z,12.60
2017-06-14T03:41:41.368Z,12.50
2017-06-14T03:44:09.669Z,12.60
2017-06-14T03:46:37.986Z,12.60
2017-06-14T03:49:06.311Z,12.60
2017-06-14T03:51:34.666Z,12.60
2017-06-14T03:54:03.903Z,12.80
2017-06-14T03:56:32.243Z,12.70
2017-06-14T03:59:01.311Z,13.00
2017-06-14T04:01:29.610Z,12.90
2017-06-14T04:03:57.990Z,13.10
2017-06-14T04:06:27.190Z,13.30
2017-06-14T04:08:56.286Z,13.30
2017-06-14T04:11:25.351Z,13.40
2017-06-14T04:13:53.761Z,13.40
2017-06-14T04:16:22.823Z,13.40
2017-06-14T04:18:51.230Z,13.40
2017-06-14T04:21:19.519Z,13.40
2017-06-14T04:23:47.862Z,13.40
2017-06-14T04:26:16.262Z,13.40
2017-06-14T04:28:45.355Z,13.50
2017-06-14T04:31:13.745Z,13.40
2017-06-14T04:33:42.811Z,13.40
2017-06-14T04:36:11.151Z,13.40
2017-06-14T04:38:39.446Z,13.50
2017-06-14T04:41:07.762Z,13.50
2017-06-14T04:43:36.958Z,13.70
2017-06-14T04:46:06.052Z,13.60
2017-06-14T04:48:35.356Z,13.60
2017-06-14T04:51:03.671Z,13.60
2017-06-14T04:53:31.998Z,13.70
2017-06-14T04:56:01.503Z,13.70
2017-06-14T04:58:30.573Z,13.70
2017-06-14T05:00:58.874Z,13.60
2017-06-14T05:03:27.942Z,13.70
2017-06-14T05:05:56.262Z,13.60
2017-06-14T05:08:24.568Z,13.70
2017-06-14T05:10:52.911Z,13.70
2017-06-14T05:13:21.439Z,13.80
2017-06-14T05:15:49.735Z,13.90
2017-06-14T05:18:18.139Z,13.90
2017-06-14T05:20:47.243Z,13.90
2017-06-14T05:23:15.569Z,13.80
2017-06-14T05:25:43.911Z,13.80
2017-06-14T05:28:12.262Z,13.70
2017-06-14T05:30:41.351Z,13.80
2017-06-14T05:33:09.646Z,13.70
2017-06-14T05:35:38.735Z,13.90
2017-06-14T05:38:07.862Z,14.00
2017-06-14T05:40:36.321Z,14.00
2017-06-14T05:43:05.395Z,14.20
2017-06-14T05:45:33.763Z,14.10
2017-06-14T05:48:02.222Z,14.10
2017-06-14T05:50:30.646Z,14.20
2017-06-14T05:52:59.091Z,14.30
2017-06-14T05:55:27.609Z,14.40
2017-06-14T05:57:56.691Z,14.50
2017-06-14T06:00:25.791Z,14.50
2017-06-14T06:02:54.099Z,14.50
2017-06-14T06:05:22.414Z,14.60
2017-06-14T06:07:50.936Z,14.80
2017-06-14T06:10:19.419Z,15.10
2017-06-14T06:12:48.483Z,15.50
2017-06-14T06:15:16.879Z,15.40
2017-06-14T06:17:45.265Z,15.40
2017-06-14T06:20:13.758Z,15.50
2017-06-14T06:22:42.807Z,15.90
2017-06-14T06:25:11.104Z,15.90
2017-06-14T06:27:39.423Z,16.20
2017-06-14T06:30:07.712Z,16.40
2017-06-14T06:32:36.238Z,16.40
2017-06-14T06:35:05.329Z,16.60
2017-06-14T06:37:33.619Z,16.60
2017-06-14T06:40:02.711Z,16.70
2017-06-14T06:42:31.038Z,16.60
2017-06-14T06:44:59.358Z,16.70
2017-06-14T06:47:27.680Z,16.90
2017-06-14T06:49:56.031Z,17.00
2017-06-14T06:52:24.808Z,17.10
2017-06-14T06:54:53.906Z,17.40
2017-06-14T06:57:22.278Z,17.40
2017-06-14T06:59:50.658Z,17.50
2017-06-14T07:02:19.154Z,17.50
2017-06-14T07:04:47.487Z,17.30
2017-06-14T07:07:16.719Z,17.20
2017-06-14T07:09:45.771Z,17.30
2017-06-14T07:12:14.150Z,17.20
2017-06-14T07:14:42.457Z,17.40
2017-06-14T07:17:10.836Z,17.50
2017-06-14T07:19:39.206Z,17.90
2017-06-14T07:22:07.595Z,18.00
2017-06-14T07:24:36.786Z,18.20
2017-06-14T07:27:05.884Z,18.00
2017-06-14T07:29:34.269Z,18.00
2017-06-14T07:32:03.351Z,17.70
2017-06-14T07:34:32.454Z,17.60
2017-06-14T07:37:01.544Z,17.80
2017-06-14T07:39:29.928Z,17.80
2017-06-14T07:41:59.223Z,17.80
2017-06-14T07:44:28.323Z,17.60
2017-06-14T07:46:57.384Z,17.60
2017-06-14T07:49:26.115Z,17.60
2017-06-14T07:51:54.432Z,17.70
2017-06-14T07:54:22.767Z,17.90
2017-06-14T07:56:51.071Z,17.90
2017-06-14T07:59:19.451Z,17.60
2017-06-14T08:01:47.897Z,17.70
2017-06-14T08:04:16.271Z,17.70
2017-06-14T08:06:44.599Z,18.00
2017-06-14T08:09:12.910Z,18.20
2017-06-14T08:11:42.213Z,17.30
2017-06-14T08:14:10.603Z,17.30
2017-06-14T08:16:38.934Z,17.20
2017-06-14T08:19:07.255Z,17.20
2017-06-14T08:21:35.546Z,17.30
2017-06-14T08:24:03.904Z,17.60
2017-06-14T08:26:32.368Z,17.80
2017-06-14T08:29:00.695Z,17.90
2017-06-14T08:31:29.245Z,18.10
2017-06-14T08:33:58.331Z,17.80
2017-06-14T08:36:27.433Z,17.60
2017-06-14T08:38:56.528Z,17.60
2017-06-14T08:41:25.623Z,17.60
2017-06-14T08:43:53.944Z,17.60
2017-06-14T08:46:22.272Z,17.80
2017-06-14T08:48:50.746Z,17.70
2017-06-14T08:51:19.133Z,17.80
2017-06-14T08:53:48.442Z,18.00
2017-06-14T08:56:16.812Z,17.90
2017-06-14T08:58:45.901Z,18.10
2017-06-14T09:01:15.097Z,18.10
2017-06-14T09:03:44.205Z,18.20
2017-06-14T09:06:12.574Z,18.20
2017-06-14T09:08:41.635Z,18.40
2017-06-14T09:11:10.763Z,18.40
2017-06-14T09:13:39.146Z,18.40
2017-06-14T09:16:07.624Z,18.50
2017-06-14T09:18:35.939Z,18.50
2017-06-14T09:21:04.247Z,18.50
2017-06-14T09:23:33.477Z,18.60
2017-06-14T09:26:01.962Z,18.50
2017-06-14T09:28:30.307Z,18.60
2017-06-14T09:30:58.707Z,18.50
2017-06-14T09:33:27.803Z,18.70
2017-06-14T09:35:56.994Z,18.80
2017-06-14T09:38:26.081Z,18.80
2017-06-14T09:40:54.466Z,18.80
2017-06-14T09:43:23.567Z,18.80
2017-06-14T09:45:51.943Z,18.80
2017-06-14T09:48:20.322Z,18.90
2017-06-14T09:50:48.808Z,18.90
2017-06-14T09:53:17.175Z,19.00
2017-06-14T09:55:46.242Z,19.20
2017-06-14T09:58:14.646Z,19.20
2017-06-14T10:00:43.723Z,19.20
2017-06-14T10:03:12.051Z,19.20
2017-06-14T10:05:40.407Z,19.30
2017-06-14T10:08:09.504Z,19.70
2017-06-14T10:10:37.878Z,19.70
2017-06-14T10:13:06.236Z,19.80
2017-06-14T10:15:34.637Z,19.80
2017-06-14T10:18:02.974Z,20.00
2017-06-14T10:20:31.492Z,20.00
2017-06-14T10:22:59.864Z,20.00
2017-06-14T10:25:28.983Z,20.00
2017-06-14T10:27:57.374Z,19.90
2017-06-14T10:30:25.747Z,19.90
2017-06-14T10:32:54.065Z,19.90
2017-06-14T10:35:22.478Z,20.00
2017-06-14T10:37:50.860Z,20.20
2017-06-14T10:40:20.003Z,20.30
2017-06-14T10:42:48.308Z,20.30
2017-06-14T10:45:16.622Z,20.50
2017-06-14T10:47:44.976Z,20.60
2017-06-14T10:50:14.048Z,20.70
2017-06-14T10:52:42.416Z,20.70
2017-06-14T10:55:10.743Z,20.90
2017-06-14T10:57:39.112Z,21.00
2017-06-14T11:00:07.483Z,21.00
2017-06-14T11:02:36.574Z,21.00
2017-06-14T11:05:05.179Z,20.90
2017-06-14T11:07:33.537Z,20.90
2017-06-14T11:10:02.630Z,21.00
2017-06-14T11:12:31.731Z,21.00
2017-06-14T11:15:00.174Z,20.90
2017-06-14T11:17:28.515Z,21.10
2017-06-14T11:19:56.827Z,21.10
2017-06-14T11:22:25.160Z,21.00
2017-06-14T11:24:53.499Z,21.10
2017-06-14T11:27:21.832Z,21.10
2017-06-14T11:29:50.168Z,21.20
2017-06-14T11:32:19.322Z,21.20
2017-06-14T11:34:47.751Z,21.10
2017-06-14T11:37:16.939Z,21.40
2017-06-14T11:39:45.260Z,21.40
2017-06-14T11:42:13.705Z,21.40
2017-06-14T11:44:42.188Z,21.40
2017-06-14T11:47:10.535Z,21.40
2017-06-14T11:49:38.840Z,21.40
2017-06-14T11:52:08.123Z,21.20
2017-06-14T11:54:37.269Z,21.10
2017-06-14T11:57:05.611Z,21.10
2017-06-14T11:59:34.742Z,21.20
2017-06-14T12:02:03.043Z,21.20
2017-06-14T12:04:31.452Z,21.30
2017-06-14T12:06:59.739Z,21.40
2017-06-14T12:09:28.574Z,21.50
2017-06-14T12:11:57.019Z,21.60
2017-06-14T12:14:25.329Z,21.70
2017-06-14T12:16:53.758Z,21.90
2017-06-14T12:19:22.848Z,21.90
2017-06-14T12:21:51.179Z,21.80
2017-06-14T12:24:19.504Z,21.90
2017-06-14T12:26:47.857Z,21.90
2017-06-14T12:29:16.267Z,21.90
2017-06-14T12:31:44.620Z,22.00
2017-06-14T12:34:14.140Z,22.40
2017-06-14T12:36:43.235Z,22.30
2017-06-14T12:39:12.430Z,22.20
2017-06-14T12:41:40.819Z,22.10
2017-06-14T12:44:10.003Z,22.40
2017-06-14T12:46:39.066Z,22.50
2017-06-14T12:49:07.555Z,22.40
2017-06-14T12:51:35.899Z,22.60
2017-06-14T12:54:04.208Z,22.50
2017-06-14T12:56:32.927Z,22.40
2017-06-14T12:59:01.239Z,22.40
2017-06-14T13:01:29.546Z,22.40
2017-06-14T13:03:57.962Z,22.60
2017-06-14T13:06:26.278Z,22.70
2017-06-14T13:08:54.714Z,22.90
2017-06-14T13:11:23.707Z,22.70
2017-06-14T13:13:52.800Z,22.70
2017-06-14T13:16:21.102Z,22.60
2017-06-14T13:18:49.662Z,22.70
2017-06-14T13:21:17.967Z,22.80
2017-06-14T13:23:46.458Z,22.90
2017-06-14T13:26:14.792Z,22.80
2017-06-14T13:28:43.148Z,22.90
2017-06-14T13:31:11.543Z,23.00
2017-06-14T13:33:40.031Z,23.00
2017-06-14T13:36:09.322Z,23.10
2017-06-14T13:38:37.818Z,23.10
2017-06-14T13:41:06.120Z,23.00
2017-06-14T13:43:35.246Z,22.90
2017-06-14T13:46:03.543Z,22.90
2017-06-14T13:48:32.643Z,23.10
2017-06-14T13:51:01.743Z,23.20
2017-06-14T13:53:30.115Z,23.10
2017-06-14T13:55:58.503Z,23.30
2017-06-14T13:58:26.807Z,23.30
2017-06-14T14:00:55.136Z,23.40
2017-06-14T14:03:24.218Z,23.40
2017-06-14T14:05:52.632Z,23.40
2017-06-14T14:08:21.823Z,23.20
2017-06-14T14:10:51.010Z,23.10
2017-06-14T14:13:20.119Z,23.10
2017-06-14T14:15:48.475Z,23.10
2017-06-14T14:18:16.816Z,23.20
2017-06-14T14:20:45.148Z,23.30
2017-06-14T14:23:13.532Z,23.40
2017-06-14T14:25:42.011Z,23.30
2017-06-14T14:28:10.383Z,23.30
2017-06-14T14:30:39.442Z,23.30
2017-06-14T14:33:07.770Z,23.30
2017-06-14T14:35:36.134Z,23.40
2017-06-14T14:38:05.337Z,23.70
2017-06-14T14:40:34.421Z,23.70
2017-06-14T14:43:03.615Z,23.80
2017-06-14T14:45:32.710Z,23.80
2017-06-14T14:48:01.159Z,23.80
2017-06-14T14:50:29.499Z,24.10
2017-06-14T14:52:57.807Z,24.30
2017-06-14T14:55:26.103Z,24.50
2017-06-14T14:57:54.438Z,24.80
2017-06-14T15:00:22.746Z,25.10
2017-06-14T15:02:51.076Z,25.50
2017-06-14T15:05:19.371Z,25.90
2017-06-14T15:07:47.708Z,26.00
2017-06-14T15:10:16.032Z,25.90
2017-06-14T15:12:44.468Z,26.00
2017-06-14T15:15:12.781Z,26.50
2017-06-14T15:17:41.340Z,26.90
2017-06-14T15:20:09.699Z,27.30
2017-06-14T15:22:38.171Z,27.60
2017-06-14T15:25:07.715Z,28.40
2017-06-14T15:27:36.009Z,28.40
2017-06-14T15:30:04.435Z,29.20
2017-06-14T15:32:33.500Z,31.50
2017-06-14T15:35:01.980Z,31.40
2017-06-14T15:37:30.410Z,32.20
2017-06-14T15:39:58.710Z,32.00
2017-06-14T15:42:27.311Z,32.60
2017-06-14T15:44:55.656Z,32.70
2017-06-14T15:47:24.010Z,32.40
2017-06-14T15:49:53.195Z,33.80
2017-06-14T15:52:22.316Z,34.40
2017-06-14T15:54:50.686Z,34.30
2017-06-14T15:57:19.982Z,34.60
2017-06-14T15:59:48.360Z,34.50
2017-06-14T16:02:16.731Z,35.30
2017-06-14T16:04:46.181Z,36.00
2017-06-14T16:07:14.519Z,35.90
2017-06-14T16:09:43.659Z,36.60
2017-06-14T16:12:11.996Z,36.50
2017-06-14T16:14:40.340Z,37.00
2017-06-14T16:17:08.745Z,36.70
2017-06-14T16:19:37.944Z,35.70
2017-06-14T16:22:06.271Z,35.60
2017-06-14T16:24:34.615Z,36.20
2017-06-14T16:27:03.076Z,36.50
2017-06-14T16:29:32.163Z,37.40
2017-06-14T16:32:01.240Z,37.30
2017-06-14T16:34:29.646Z,37.60
2017-06-14T16:36:58.832Z,37.80
2017-06-14T16:39:27.162Z,37.70
2017-06-14T16:41:55.587Z,38.40
2017-06-14T16:44:23.979Z,39.10
2017-06-14T16:46:52.657Z,39.00
2017-06-14T16:49:21.027Z,39.10
2017-06-14T16:51:49.419Z,39.10
2017-06-14T16:54:17.765Z,38.60
2017-06-14T16:56:46.065Z,38.30
2017-06-14T16:59:14.551Z,38.00
2017-06-14T17:01:43.695Z,37.10
2017-06-14T17:04:11.992Z,37.20
2017-06-14T17:06:40.398Z,37.50
2017-06-14T17:09:08.720Z,37.70
2017-06-14T17:11:37.165Z,37.90
2017-06-14T17:14:05.531Z,37.80
2017-06-14T17:16:33.842Z,36.70
2017-06-14T17:19:02.281Z,35.80
2017-06-14T17:21:31.355Z,34.60
2017-06-14T17:23:59.669Z,34.50
2017-06-14T17:26:28.233Z,34.30
2017-06-14T17:28:58.332Z,34.20
2017-06-14T17:31:27.456Z,34.60
2017-06-14T17:33:56.915Z,35.10
2017-06-14T17:36:25.225Z,35.10
2017-06-14T17:38:53.606Z,35.60
2017-06-14T17:41:21.930Z,35.80
2017-06-14T17:43:50.371Z,36.10
2017-06-14T17:46:19.434Z,36.10
2017-06-14T17:48:47.719Z,36.00
2017-06-14T17:51:16.148Z,36.00
2017-06-14T17:53:44.467Z,36.20
2017-06-14T17:56:12.811Z,36.60
2017-06-14T17:58:41.139Z,36.70
2017-06-14T18:01:09.572Z,36.30
2017-06-14T18:03:37.863Z,35.30
2017-06-14T18:06:06.328Z,34.30
2017-06-14T18:08:34.619Z,33.40
2017-06-14T18:11:02.998Z,32.30
2017-06-14T18:13:31.383Z,31.10
2017-06-14T18:15:59.867Z,30.40
2017-06-14T18:18:28.182Z,29.60
2017-06-14T18:20:56.487Z,28.90
2017-06-14T18:23:24.830Z,28.40
2017-06-14T18:25:53.131Z,27.70
2017-06-14T18:28:21.479Z,27.20
2017-06-14T18:30:50.578Z,26.40
2017-06-14T18:33:18.888Z,26.30
2017-06-14T18:35:47.219Z,26.00
2017-06-14T18:38:15.530Z,25.60
2017-06-14T18:40:43.875Z,25.30
2017-06-14T18:43:12.170Z,25.00
2017-06-14T18:45:40.483Z,24.60
2017-06-14T18:48:08.803Z,24.30
2017-06-14T18:50:37.289Z,24.10
2017-06-14T18:53:06.441Z,23.80
2017-06-14T18:55:35.363Z,23.70
2017-06-14T18:58:04.453Z,23.40
2017-06-14T19:00:32.779Z,23.30
2017-06-14T19:03:01.124Z,23.30
2017-06-14T19:05:30.204Z,23.10
2017-06-14T19:07:58.532Z,23.00
2017-06-14T19:10:26.872Z,23.00
2017-06-14T19:12:55.203Z,22.90
2017-06-14T19:15:23.633Z,22.80
2017-06-14T19:17:51.991Z,22.70
2017-06-14T19:20:21.071Z,22.60
2017-06-14T19:22:50.967Z,22.50
2017-06-14T19:25:19.449Z,22.50
2017-06-14T19:27:47.807Z,22.40
2017-06-14T19:30:16.137Z,22.30
2017-06-14T19:32:50.360Z,22.20
2017-06-14T19:35:18.671Z,22.00
2017-06-14T19:37:47.016Z,21.90
2017-06-14T19:40:16.223Z,21.70
2017-06-14T19:42:44.553Z,21.60
2017-06-14T19:45:12.905Z,21.50
2017-06-14T19:47:41.241Z,21.40
2017-06-14T19:50:09.607Z,21.30
2017-06-14T19:52:38.703Z,21.10
2017-06-14T19:55:07.032Z,21.00
2017-06-14T19:57:35.379Z,20.90
2017-06-14T20:00:03.714Z,20.90
2017-06-14T20:02:32.075Z,20.80
2017-06-14T20:05:00.529Z,20.70
2017-06-14T20:07:28.843Z,20.60
2017-06-14T20:09:57.195Z,20.50
2017-06-14T20:12:25.521Z,20.50
2017-06-14T20:14:53.888Z,20.30
2017-06-14T20:17:22.211Z,20.30
2017-06-14T20:19:50.924Z,20.20
2017-06-14T20:22:19.218Z,20.10
2017-06-14T20:24:47.551Z,20.10
2017-06-14T20:27:15.915Z,20.00
2017-06-14T20:29:44.287Z,19.90
2017-06-14T20:32:12.646Z,19.80
2017-06-14T20:34:40.986Z,19.80
2017-06-14T20:37:09.342Z,19.70
2017-06-14T20:39:37.695Z,19.70
2017-06-14T20:42:06.775Z,19.60
2017-06-14T20:44:35.987Z,19.50
2017-06-14T20:47:05.073Z,19.50
2017-06-14T20:49:33.446Z,19.40
2017-06-14T20:52:01.783Z,19.40
2017-06-14T20:54:30.315Z,19.40
2017-06-14T20:56:58.664Z,19.40
2017-06-14T20:59:26.995Z,19.30
2017-06-14T21:01:55.447Z,19.20
2017-06-14T21:04:24.543Z,19.20
2017-06-14T21:06:52.886Z,19.20
2017-06-14T21:09:21.214Z,19.10
2017-06-14T21:11:49.588Z,19.00
2017-06-14T21:14:17.912Z,19.00
2017-06-14T21:16:46.244Z,19.00
2017-06-14T21:19:14.595Z,18.90
2017-06-14T21:21:42.929Z,18.90
2017-06-14T21:24:11.283Z,18.80
2017-06-14T21:26:39.623Z,18.80
2017-06-14T21:29:07.936Z,18.80
2017-06-14T21:31:36.284Z,18.70
2017-06-14T21:34:04.726Z,18.70
2017-06-14T21:36:33.071Z,18.70
2017-06-14T21:39:01.495Z,18.60
2017-06-14T21:44:05.123Z,18.50
2017-06-14T21:46:34.255Z,18.50
2017-06-14T21:49:02.595Z,18.40
2017-06-14T21:51:30.916Z,18.40
2017-06-14T21:53:59.255Z,18.40
2017-06-14T21:56:27.589Z,18.40
2017-06-14T21:58:55.939Z,18.40
2017-06-14T22:01:24.284Z,18.30
2017-06-14T22:03:52.644Z,18.30
2017-06-14T22:06:20.974Z,18.20
2017-06-14T22:08:50.247Z,18.20
2017-06-14T22:11:18.610Z,18.20
2017-06-14T22:13:47.744Z,18.00
2017-06-14T22:16:16.115Z,18.00
2017-06-14T22:18:44.519Z,18.00
2017-06-14T22:21:12.875Z,18.00
2017-06-14T22:23:41.244Z,17.90
2017-06-14T22:26:09.607Z,17.90
2017-06-14T22:28:38.003Z,17.90
2017-06-14T22:31:06.331Z,17.90
2017-06-14T22:33:34.762Z,17.90
2017-06-14T22:36:03.141Z,17.80
2017-06-14T22:38:31.515Z,17.80
2017-06-14T22:40:59.846Z,17.80
2017-06-14T22:43:28.155Z,17.80
2017-06-14T22:45:56.551Z,17.70
2017-06-14T22:48:25.439Z,17.70
2017-06-14T22:50:53.771Z,17.70
2017-06-14T22:53:22.195Z,17.70
2017-06-14T22:55:50.547Z,17.70
2017-06-14T22:58:19.640Z,17.60
2017-06-14T23:00:48.859Z,17.60
2017-06-14T23:03:17.245Z,17.50
2017-06-14T23:05:45.621Z,17.60
2017-06-14T23:08:14.412Z,17.50
2017-06-14T23:10:43.236Z,17.50
2017-06-14T23:13:11.571Z,17.50
2017-06-14T23:15:39.900Z,17.50
2017-06-14T23:18:08.327Z,17.40
2017-06-14T23:20:36.703Z,17.40
2017-06-14T23:23:05.180Z,17.40
2017-06-14T23:25:33.566Z,17.40
2017-06-14T23:28:02.746Z,17.30
2017-06-14T23:30:31.090Z,17.20
2017-06-14T23:32:59.515Z,17.30
2017-06-14T23:35:27.898Z,17.30
2017-06-14T23:37:56.353Z,17.30
2017-06-14T23:40:25.566Z,17.20
2017-06-14T23:42:53.890Z,17.20
2017-06-14T23:45:22.224Z,17.20
2017-06-14T23:47:50.575Z,17.10
2017-06-14T23:50:18.983Z,17.10
2017-06-14T23:52:47.347Z,17.10
2017-06-14T23:55:16.451Z,17.10
2017-06-14T23:57:45.757Z,17.00
